Time;durP1;ratioP1;P1;durP2;ratioP2;P2;SDS_P1;SDS_P2;PMS_P1;PMS_P2;Temp;Humidity;BMP_temperature;BMP_pressure;BME280_temperature;BME280_humidity;BME280_pressure;Samples;Min_cycle;Max_cycle;Signal;HPM_P1;HPM_P2
2022/08/12 00:44:44;;;;;;;1999.90;999.90;;;;;;;20.16;41.92;95506.34;5029812;28;20044;-66
2022/08/12 00:47:13;;;;;;;1999.90;999.90;;;;;;;19.01;42.18;95378.28;5029358;28;20674;-65
2022/08/12 00:49:40;;;;;;;1999.90;999.90;;;;;;;20.44;42.53;95562.09;5028824;28;20379;-65
2022/08/12 00:52:09;;;;;;;1999.90;999.90;;;;;;;20.43;42.36;95564.00;5012563;28;20109;-69
2022/08/12 00:54:50;;;;;;;1999.90;999.90;;;;;;;20.76;42.39;95595.94;5029453;28;20502;-65
2022/08/12 00:57:20;;;;;;;1999.90;999.90;;;;;;;20.76;42.30;95587.03;5028194;28;20176;-68
2022/08/12 00:59:51;;;;;;;1999.90;999.90;;;;;;;19.99;42.59;95487.88;5030367;28;20029;-69
2022/08/12 01:02:28;;;;;;;1999.90;999.90;;;;;;;20.06;43.00;95530.44;5029046;28;20029;-69
2022/08/12 01:13:17;;;;;;;1999.90;999.90;;;;;;;18.50;42.82;95265.09;5029002;28;20558;-68
2022/08/12 01:15:44;;;;;;;1999.90;999.90;;;;;;;19.19;42.90;95365.16;5028441;28;20522;-68
2022/08/12 01:18:15;;;;;;;1999.90;999.90;;;;;;;19.93;42.96;95483.91;5030281;28;20075;-69
2022/08/12 01:20:55;;;;;;;1999.90;999.90;;;;;;;19.50;43.16;95423.63;5029189;28;20053;-68
2022/08/12 01:23:45;;;;;;;1999.90;999.90;;;;;;;20.49;43.43;95580.75;5029602;28;20030;-69
2022/08/12 01:26:19;;;;;;;1999.90;999.90;;;;;;;18.93;43.62;95365.75;5028370;28;20056;-68
2022/08/12 01:28:47;;;;;;;1999.90;999.90;;;;;;;18.67;43.24;95315.09;5030075;28;20025;-68
2022/08/12 01:31:15;;;;;;;1999.90;999.90;;;;;;;18.98;43.47;95362.00;5027747;28;20056;-68
2022/08/12 01:34:07;;;;;;;1999.90;999.90;;;;;;;20.33;43.80;95585.41;5029762;28;20029;-69
2022/08/12 01:36:45;;;;;;;1999.90;999.90;;;;;;;19.59;43.97;95480.06;5011379;28;20127;-74
2022/08/12 01:39:15;;;;;;;1999.90;999.90;;;;;;;20.30;43.79;95610.44;5030962;28;20026;-66
2022/08/12 01:41:51;;;;;;;1999.90;999.90;;;;;;;18.77;43.71;95362.31;5009873;28;20034;-65
2022/08/12 01:44:18;;;;;;;1999.90;999.90;;;;;;;19.51;43.71;95491.88;5011543;28;20482;-66
2022/08/12 01:46:59;;;;;;;1999.90;999.90;;;;;;;19.17;44.35;95464.53;5027287;28;20079;-65
2022/08/12 01:49:56;;;;;;;1999.90;999.90;;;;;;;19.22;43.97;95454.25;5028642;28;20482;-66
2022/08/12 01:52:42;;;;;;;1999.90;999.90;;;;;;;18.95;44.26;95436.28;5028276;28;20034;-65
2022/08/12 01:55:10;;;;;;;1999.90;999.90;;;;;;;19.59;44.57;95545.66;5029466;28;20033;-66
2022/08/12 01:57:43;;;;;;;1999.90;999.90;;;;;;;19.90;44.73;95576.41;5028109;28;20033;-64
2022/08/12 02:00:12;;;;;;;1999.90;999.90;;;;;;;19.84;44.88;95564.31;5009885;28;20033;-69
2022/08/12 02:02:48;;;;;;;1999.90;999.90;;;;;;;19.73;45.54;95567.56;5009644;28;20041;-73
2022/08/12 02:11:45;;;;;;;1999.90;999.90;;;;;;;18.92;45.74;95463.94;5018223;28;20088;-74
2022/08/12 02:14:34;;;;;;;1999.90;999.90;;;;;;;19.79;45.54;95570.00;5027258;28;20029;-73
2022/08/12 02:16:59;;;;;;;1999.90;999.90;;;;;;;19.74;45.75;95569.13;5005628;28;20044;-73
2022/08/12 02:20:00;;;;;;;1999.90;999.90;;;;;;;18.79;45.52;95425.53;5010593;28;20026;-72
2022/08/12 02:22:29;;;;;;;1999.90;999.90;;;;;;;19.73;45.80;95586.47;4943283;28;20063;-73
2022/08/12 02:25:36;;;;;;;1999.90;999.90;;;;;;;19.65;45.93;95565.81;5027795;28;20029;-73
2022/08/12 02:28:03;;;;;;;1999.90;999.90;;;;;;;18.79;45.91;95440.91;5027276;28;20552;-73
2022/08/12 02:30:32;;;;;;;1999.90;999.90;;;;;;;19.08;45.86;95486.25;5009473;28;20108;-73
2022/08/12 02:32:59;;;;;;;1999.90;999.90;;;;;;;18.31;45.85;95353.91;5028351;28;20105;-73
2022/08/12 02:35:27;;;;;;;1999.90;999.90;;;;;;;18.28;46.21;95346.53;5027945;28;20052;-73
2022/08/12 02:37:56;;;;;;;1999.90;999.90;;;;;;;19.62;46.22;95555.75;5029384;28;20025;-73
2022/08/12 02:40:23;;;;;;;1999.90;999.90;;;;;;;19.10;45.94;95494.03;5028292;28;20053;-74
2022/08/12 02:42:58;;;;;;;1999.90;999.90;;;;;;;17.51;45.91;95274.22;5010269;28;20026;-74
2022/08/12 02:45:55;;;;;;;1999.90;999.90;;;;;;;18.24;46.18;95356.44;5009367;28;20040;-74
2022/08/12 02:48:29;;;;;;;1999.90;999.90;;;;;;;18.36;46.39;95369.78;5029314;28;20033;-73
2022/08/12 02:50:57;;;;;;;1999.90;999.90;;;;;;;18.91;46.61;95454.28;5028555;28;20045;-73
2022/08/12 02:53:24;;;;;;;1999.90;999.90;;;;;;;18.91;46.07;95457.00;5028229;28;20029;-73
2022/08/12 02:55:50;;;;;;;1999.90;999.90;;;;;;;18.01;46.10;95315.84;5010648;28;20021;-73
2022/08/12 02:58:17;;;;;;;1999.90;999.90;;;;;;;19.54;46.20;95556.69;5007597;28;20033;-73
2022/08/12 03:00:43;;;;;;;1999.90;999.90;;;;;;;18.24;46.31;95351.03;5009093;28;20033;-73
2022/08/12 03:03:10;;;;;;;1999.90;999.90;;;;;;;18.61;46.18;95426.97;5010192;28;20041;-75
2022/08/12 03:05:43;;;;;;;1999.90;999.90;;;;;;;18.31;46.28;95383.53;5028548;28;20021;-73
2022/08/12 03:08:12;;;;;;;1999.90;999.90;;;;;;;19.40;46.64;95556.38;5029107;28;20033;-74
2022/08/12 03:10:41;;;;;;;1999.90;999.90;;;;;;;18.79;46.54;95473.25;5029027;28;20065;-74
2022/08/12 03:13:07;;;;;;;1999.90;999.90;;;;;;;18.05;46.61;95338.25;5031296;28;20510;-73
2022/08/12 03:15:34;;;;;;;1999.90;999.90;;;;;;;18.52;46.63;95421.75;5032192;28;20037;-74
2022/08/12 03:18:13;;;;;;;1999.90;999.90;;;;;;;19.32;46.94;95544.63;5032279;28;20067;-74
2022/08/12 03:20:39;;;;;;;1999.90;999.90;;;;;;;17.84;46.57;95314.28;5014615;28;20021;-73
2022/08/12 03:23:10;;;;;;;1999.90;999.90;;;;;;;19.35;46.71;95564.72;5031455;28;20155;-73
2022/08/12 03:25:38;;;;;;;1999.90;999.90;;;;;;;18.24;46.70;95411.06;5014106;28;20029;-76
2022/08/12 03:28:07;;;;;;;1999.90;999.90;;;;;;;18.29;46.89;95418.09;5011902;28;20099;-75
2022/08/12 03:30:33;;;;;;;1999.90;999.90;;;;;;;19.28;47.08;95584.22;5030302;28;20128;-74
2022/08/12 03:33:01;;;;;;;1999.90;999.90;;;;;;;17.97;47.25;95366.91;5014273;28;20382;-72
2022/08/12 03:35:29;;;;;;;1999.90;999.90;;;;;;;18.67;47.40;95485.63;5013591;28;20029;-72
2022/08/12 03:38:07;;;;;;;1999.90;999.90;;;;;;;19.13;47.35;95580.38;5013676;28;20036;-74
2022/08/12 04:00:24;;;;;;;1999.90;999.90;;;;;;;17.57;48.45;95381.19;5012000;28;20061;-73
2022/08/12 04:03:04;;;;;;;1999.90;999.90;;;;;;;17.34;48.04;95337.13;4994525;28;20026;-72
2022/08/12 04:05:31;;;;;;;1999.90;999.90;;;;;;;18.87;48.22;95561.22;5009147;28;20363;-72
2022/08/12 04:07:58;;;;;;;1999.90;999.90;;;;;;;17.56;47.98;95350.06;5030803;28;20029;-72
2022/08/12 04:13:15;;;;;;;1999.90;999.90;;;;;;;17.19;47.95;95281.41;5017282;28;20096;-74
2022/08/12 04:13:20;;;;;;;1999.90;999.90;;;;;;;18.31;48.19;95450.84;5029413;28;20497;-74
2022/08/12 04:15:45;;;;;;;;;;;;;;;18.93;48.02;95540.97;5008604;28;20622;-72
2022/08/12 04:18:14;;;;;;;1999.90;999.90;;;;;;;17.66;47.84;95338.03;5013698;28;19913;-73
2022/08/12 04:20:41;;;;;;;1999.90;999.90;;;;;;;18.36;47.61;95445.19;5012817;28;20033;-73
2022/08/12 04:23:09;;;;;;;1999.90;999.90;;;;;;;17.20;48.15;95299.09;5030210;28;20041;-72
2022/08/12 04:25:35;;;;;;;1999.90;999.90;;;;;;;18.03;47.93;95419.38;5012501;28;20470;-73
2022/08/12 04:28:00;;;;;;;1999.90;999.90;;;;;;;18.74;47.77;95520.09;5030363;28;20474;-73
2022/08/12 04:30:25;;;;;;;1999.90;999.90;;;;;;;17.65;47.67;95337.22;5029356;28;20067;-74
2022/08/12 04:32:51;;;;;;;1999.90;999.90;;;;;;;17.82;47.47;95373.06;5012271;28;20029;-72
2022/08/12 04:35:17;;;;;;;1999.90;999.90;;;;;;;19.14;47.83;95568.47;5009956;28;20021;-73
2022/08/12 04:37:52;;;;;;;1999.90;999.90;;;;;;;18.28;47.50;95427.31;5031306;28;20614;-73
2022/08/12 04:40:18;;;;;;;1999.90;999.90;;;;;;;18.06;47.18;95375.59;5010114;28;20022;-75
2022/08/12 04:42:44;;;;;;;1999.90;999.90;;;;;;;18.94;46.97;95480.56;5024509;28;20044;-75
2022/08/12 04:45:10;;;;;;;1999.90;999.90;;;;;;;19.03;46.87;95467.66;5029291;28;20096;-74
2022/08/12 04:47:35;;;;;;;1999.90;999.90;;;;;;;18.80;46.40;95399.34;5013488;28;20021;-75
2022/08/12 04:50:01;;;;;;;1999.90;999.90;;;;;;;18.94;46.39;95405.88;5030765;28;20666;-73
2022/08/12 04:52:27;;;;;;;1999.90;999.90;;;;;;;19.89;46.73;95559.41;5030705;28;20064;-74
2022/08/12 04:54:53;;;;;;;1999.90;999.90;;;;;;;18.41;46.44;95319.16;5009227;28;20057;-75
2022/08/12 04:57:18;;;;;;;1999.90;999.90;;;;;;;18.59;46.22;95338.44;5001182;28;20466;-75
2022/08/12 04:59:43;;;;;;;1999.90;999.90;;;;;;;19.98;45.89;95518.72;5030119;28;20021;-75
2022/08/12 05:02:09;;;;;;;1999.90;999.90;;;;;;;18.54;45.60;95313.66;5027023;28;20040;-72
2022/08/12 05:04:36;;;;;;;1999.90;999.90;;;;;;;20.54;45.58;95566.16;5012991;28;20021;-73
2022/08/12 05:07:01;;;;;;;1999.90;999.90;;;;;;;19.93;44.49;95457.69;5020842;28;20497;-73
2022/08/12 05:09:27;;;;;;;1999.90;999.90;;;;;;;19.12;44.42;95340.75;5030859;28;20018;-72
2022/08/12 05:11:53;;;;;;;1999.90;999.90;;;;;;;19.53;45.02;95374.34;4995284;28;20065;-73
2022/08/12 05:14:19;;;;;;;1999.90;999.90;;;;;;;20.25;44.60;95487.22;5010823;28;20025;-72
2022/08/12 05:16:44;;;;;;;1999.90;999.90;;;;;;;19.77;44.90;95413.81;5009218;28;20044;-73
2022/08/12 05:19:09;;;;;;;1999.90;999.90;;;;;;;19.89;44.89;95429.84;5012929;28;20104;-73
2022/08/12 05:21:35;;;;;;;1999.90;999.90;;;;;;;19.52;45.12;95355.81;5011554;28;20033;-72
2022/08/12 05:24:00;;;;;;;1999.90;999.90;;;;;;;19.43;45.76;95386.47;5012579;28;20030;-72
2022/08/12 05:26:27;;;;;;;1999.90;999.90;;;;;;;20.91;45.00;95566.44;5016933;28;20037;-72
2022/08/12 05:28:53;;;;;;;1999.90;999.90;;;;;;;19.41;44.77;95361.78;5030274;28;20424;-72
2022/08/12 05:31:19;;;;;;;1999.90;999.90;;;;;;;20.56;45.68;95553.84;5026999;28;20028;-74
2022/08/12 05:33:46;;;;;;;1999.90;999.90;;;;;;;19.09;45.80;95333.38;5011627;28;20022;-73
2022/08/12 05:36:13;;;;;;;1999.90;999.90;;;;;;;20.89;44.84;95574.16;5008030;28;20041;-73
2022/08/12 05:38:55;;;;;;;1999.90;999.90;;;;;;;20.40;44.88;95496.38;5010120;28;20101;-74
2022/08/12 05:41:25;;;;;;;;;;;;;;;21.07;45.03;95575.22;5024557;28;20037;-72
2022/08/12 05:44:02;;;;;;;1999.90;999.90;;;;;;;21.11;43.89;95567.97;5029871;28;20020;-71
2022/08/12 05:46:32;;;;;;;1999.90;999.90;;;;;;;20.69;42.87;95522.81;5027983;28;20390;-66
2022/08/12 05:48:59;;;;;;;1999.90;999.90;;;;;;;21.07;42.37;95574.44;5029556;28;20542;-67
2022/08/12 05:51:30;;;;;;;1999.90;999.90;;;;;;;19.53;42.42;95323.09;5027699;28;20036;-66
2022/08/12 05:53:56;;;;;;;1999.90;999.90;;;;;;;20.86;42.35;95545.91;5029191;28;20558;-66
2022/08/12 05:56:27;;;;;;;1999.90;999.90;;;;;;;20.89;42.05;95528.19;5027902;28;20560;-65
2022/08/12 05:58:54;;;;;;;1999.90;999.90;;;;;;;19.55;42.57;95385.59;5029627;28;20056;-66
2022/08/12 06:01:22;;;;;;;1999.90;999.90;;;;;;;20.98;42.24;95553.81;5026709;28;20112;-66
2022/08/12 06:03:49;;;;;;;1999.90;999.90;;;;;;;20.89;41.83;95517.38;5029309;28;20029;-65
2022/08/12 06:06:18;;;;;;;1999.90;999.90;;;;;;;21.00;41.35;95551.56;5028554;28;20025;-64
2022/08/12 06:08:47;;;;;;;1999.90;999.90;;;;;;;20.48;41.88;95488.09;5028649;28;20385;-65
2022/08/12 06:11:17;;;;;;;1999.90;999.90;;;;;;;21.40;41.49;95587.41;5028212;28;20029;-65
2022/08/12 06:13:44;;;;;;;1999.90;999.90;;;;;;;21.68;41.13;95579.72;5028123;28;20053;-65
2022/08/12 06:16:13;;;;;;;1999.90;999.90;;;;;;;21.42;41.22;95547.22;5028184;28;20100;-64
2022/08/12 06:18:39;;;;;;;1999.90;999.90;;;;;;;21.79;40.95;95555.50;5029178;28;20052;-66
2022/08/12 06:21:09;;;;;;;1999.90;999.90;;;;;;;21.44;41.21;95564.66;5009718;28;20034;-65
2022/08/12 06:23:35;;;;;;;1999.90;999.90;;;;;;;21.43;41.45;95592.09;5008993;28;20494;-65
2022/08/12 06:26:01;;;;;;;1999.90;999.90;;;;;;;20.51;41.42;95440.63;5017579;28;20064;-65
2022/08/12 06:28:29;;;;;;;1999.90;999.90;;;;;;;21.71;40.99;95584.41;5028280;28;20100;-66
2022/08/12 06:30:55;;;;;;;1999.90;999.90;;;;;;;21.85;40.71;95578.41;5028203;28;20029;-66
2022/08/12 06:33:20;;;;;;;1999.90;999.90;;;;;;;21.10;40.72;95481.78;5010210;28;20025;-65
2022/08/12 06:35:45;;;;;;;1999.90;999.90;;;;;;;21.80;40.51;95571.41;5028203;28;20108;-66
2022/08/12 06:38:19;;;;;;;1999.90;999.90;;;;;;;22.21;40.05;95570.78;5027528;28;20355;-66
2022/08/12 06:43:30;;;;;;;1999.90;999.90;;;;;;;22.15;39.50;95501.81;5026924;28;20048;-65
2022/08/12 06:45:59;;;;;;;1999.90;999.90;;;;;;;22.18;39.68;95585.09;5028338;28;20029;-65
2022/08/12 06:48:28;;;;;;;1999.90;999.90;;;;;;;21.82;39.46;95484.38;5032033;28;20029;-65
2022/08/12 06:50:56;;;;;;;1999.90;999.90;;;;;;;21.32;39.84;95497.22;5029665;28;20454;-67
2022/08/12 06:53:23;;;;;;;1999.90;999.90;;;;;;;21.83;39.93;95507.59;5027011;28;20040;-65
2022/08/12 06:55:49;;;;;;;1999.90;999.90;;;;;;;21.50;39.58;95533.44;5014032;28;20460;-65
2022/08/12 06:58:15;;;;;;;1999.90;999.90;;;;;;;21.92;39.65;95531.69;5030698;28;20029;-65
2022/08/12 07:00:45;;;;;;;1999.90;999.90;;;;;;;20.92;39.14;95371.41;5031746;28;20037;-65
2022/08/12 07:03:16;;;;;;;1999.90;999.90;;;;;;;22.51;38.70;95587.81;5003381;28;20103;-65
2022/08/12 07:05:42;;;;;;;1999.90;999.90;;;;;;;22.42;38.63;95518.75;5033157;28;20025;-69
2022/08/12 07:08:08;;;;;;;1999.90;999.90;;;;;;;23.05;38.24;95559.34;5026492;28;20780;-66
2022/08/12 07:10:40;;;;;;;1999.90;999.90;;;;;;;21.25;37.41;95289.53;5023551;28;20032;-65
2022/08/12 07:13:07;;;;;;;;;;;;;;;22.43;38.42;95567.19;5026047;28;20136;-68
2022/08/12 07:15:36;;;;;;;1999.90;999.90;;;;;;;22.31;37.81;95540.31;5027768;28;20321;-68
2022/08/12 07:18:08;;;;;;;1999.90;999.90;;;;;;;21.81;37.12;95423.25;5020537;28;20029;-67
2022/08/12 07:20:34;;;;;;;1999.90;999.90;;;;;;;21.05;37.58;95366.56;5032057;28;20111;-66
2022/08/12 07:23:03;;;;;;;1999.90;999.90;;;;;;;21.93;37.33;95443.88;5030630;28;20033;-67
2022/08/12 07:25:33;;;;;;;1999.90;999.90;;;;;;;22.81;37.82;95568.00;5013055;28;20117;-66
2022/08/12 07:28:02;;;;;;;1999.90;999.90;;;;;;;23.24;36.98;95563.78;5031410;28;20385;-68
2022/08/12 07:30:29;;;;;;;1999.90;999.90;;;;;;;22.08;37.48;95429.34;5030071;28;20034;-67
2022/08/12 07:32:55;;;;;;;1999.90;999.90;;;;;;;22.04;36.93;95385.97;5030756;28;20021;-68
2022/08/12 07:35:21;;;;;;;1999.90;999.90;;;;;;;22.04;37.07;95396.03;5029588;28;20075;-66
2022/08/12 07:37:49;;;;;;;1999.90;999.90;;;;;;;22.04;37.18;95393.31;5030911;28;20075;-66
2022/08/12 07:40:17;;;;;;;1999.90;999.90;;;;;;;22.60;36.24;95451.97;5013253;28;20025;-66
2022/08/12 07:42:44;;;;;;;1999.90;999.90;;;;;;;21.97;37.23;95371.56;5028229;28;20026;-66
2022/08/12 07:45:11;;;;;;;1999.90;999.90;;;;;;;21.92;36.76;95332.06;5029048;28;20501;-66
2022/08/12 07:47:47;;;;;;;1999.90;999.90;;;;;;;21.96;37.42;95394.41;5028926;28;20411;-66
2022/08/12 07:50:15;;;;;;;1999.90;999.90;;;;;;;23.45;36.66;95491.81;5028352;28;20040;-67
2022/08/12 07:52:45;;;;;;;1999.90;999.90;;;;;;;23.00;37.07;95493.81;5031394;28;20121;-71
2022/08/12 07:55:12;;;;;;;1999.90;999.90;;;;;;;22.68;36.40;95426.50;5029651;28;20033;-68
2022/08/12 07:57:49;;;;;;;1999.90;999.90;;;;;;;23.42;37.14;95544.16;5030582;28;20026;-66
2022/08/12 08:00:15;;;;;;;1999.90;999.90;;;;;;;22.50;37.31;95456.13;5027769;28;20053;-69
2022/08/12 08:02:40;;;;;;;1999.90;999.90;;;;;;;23.71;37.23;95589.38;5012872;28;20021;-65
2022/08/12 08:05:06;;;;;;;1999.90;999.90;;;;;;;23.81;36.32;95564.25;5029270;28;20422;-64
2022/08/12 08:07:32;;;;;;;1999.90;999.90;;;;;;;23.77;36.38;95522.69;5028768;28;20040;-65
2022/08/12 08:10:01;;;;;;;1999.90;999.90;;;;;;;23.47;35.87;95501.13;5031223;28;20026;-64
2022/08/12 08:15:13;;;;;;;1999.90;999.90;;;;;;;23.05;36.17;95434.53;5030414;28;20171;-64
2022/08/12 08:17:39;;;;;;;1999.90;999.90;;;;;;;24.30;35.75;95575.75;5016688;28;20055;-64
2022/08/12 08:20:08;;;;;;;1999.90;999.90;;;;;;;24.42;35.40;95569.25;5028671;28;20120;-64
2022/08/12 08:22:37;;;;;;;1999.90;999.90;;;;;;;23.64;36.51;95515.22;5027322;28;20037;-64
2022/08/12 08:25:03;;;;;;;1999.90;999.90;;;;;;;24.05;36.10;95581.03;5029216;28;20523;-64
2022/08/12 08:27:42;;;;;;;1999.90;999.90;;;;;;;23.84;36.41;95584.41;5030093;28;20112;-64
2022/08/12 08:30:10;;;;;;;1999.90;999.90;;;;;;;24.07;36.67;95579.53;5029878;28;20025;-65
2022/08/12 08:32:35;;;;;;;1999.90;999.90;;;;;;;23.51;36.68;95526.38;5030176;28;20026;-64
2022/08/12 08:35:00;;;;;;;1999.90;999.90;;;;;;;23.60;36.36;95486.09;5026382;28;20633;-64
2022/08/12 08:37:26;;;;;;;1999.90;999.90;;;;;;;23.50;37.06;95521.34;5030571;28;20013;-64
2022/08/12 08:39:52;;;;;;;1999.90;999.90;;;;;;;24.25;35.99;95540.78;5012301;28;20108;-64
2022/08/12 08:42:38;;;;;;;1999.90;999.90;;;;;;;23.37;36.44;95492.91;5030270;28;20036;-64
2022/08/12 08:45:11;;;;;;;1999.90;999.90;;;;;;;23.99;36.20;95533.66;5028732;28;20471;-64
2022/08/12 08:47:47;;;;;;;1999.90;999.90;;;;;;;24.41;35.64;95581.25;5024411;28;20120;-63
2022/08/12 08:50:16;;;;;;;1999.90;999.90;;;;;;;23.63;35.89;95495.44;5029381;28;20040;-64
2022/08/12 08:52:42;;;;;;;1999.90;999.90;;;;;;;23.83;35.36;95507.59;5008781;28;20025;-66
2022/08/12 08:55:12;;;;;;;1999.90;999.90;;;;;;;24.80;34.56;95574.00;5024533;28;20017;-64
2022/08/12 08:57:49;;;;;;;1999.90;999.90;;;;;;;23.58;35.88;95520.19;5030251;28;20071;-65
2022/08/12 09:00:17;;;;;;;1999.90;999.90;;;;;;;23.58;36.43;95472.09;5010805;28;20030;-64
2022/08/12 09:02:43;;;;;;;1999.90;999.90;;;;;;;24.45;35.71;95528.44;5027178;28;20025;-66
2022/08/12 09:05:11;;;;;;;1999.90;999.90;;;;;;;23.60;35.03;95518.69;5029234;28;20029;-65
2022/08/12 09:07:42;;;;;;;1999.90;999.90;;;;;;;24.67;34.17;95578.25;5012721;28;20034;-65
2022/08/12 09:10:08;;;;;;;1999.90;999.90;;;;;;;24.51;34.11;95553.31;5029641;28;20033;-64
2022/08/12 09:15:17;;;;;;;1999.90;999.90;;;;;;;24.43;34.96;95557.19;5020881;28;20048;-65
2022/08/12 09:17:54;;;;;;;1999.90;999.90;;;;;;;24.49;35.22;95580.91;5029908;28;20025;-64
2022/08/12 09:20:21;;;;;;;1999.90;999.90;;;;;;;22.22;36.58;95350.19;5028724;28;20025;-64
2022/08/12 09:22:46;;;;;;;1999.90;999.90;;;;;;;23.37;35.32;95384.34;5028026;28;20116;-65
2022/08/12 09:25:12;;;;;;;1999.90;999.90;;;;;;;23.61;36.23;95490.38;5027101;28;20093;-66
2022/08/12 09:27:38;;;;;;;1999.90;999.90;;;;;;;23.97;36.01;95536.00;5019827;28;20113;-65
2022/08/12 09:30:05;;;;;;;1999.90;999.90;;;;;;;24.31;35.00;95553.63;5027775;28;20026;-65
2022/08/12 09:32:30;;;;;;;1999.90;999.90;;;;;;;23.72;35.27;95471.44;5026570;28;20083;-66
2022/08/12 09:34:56;;;;;;;1999.90;999.90;;;;;;;23.70;35.00;95391.50;5028013;28;20466;-65
2022/08/12 09:37:27;;;;;;;1999.90;999.90;;;;;;;23.83;34.87;95362.84;5028045;28;20029;-66
2022/08/12 09:39:53;;;;;;;1999.90;999.90;;;;;;;23.21;34.80;95385.41;5029735;28;20036;-66
2022/08/12 09:45:21;;;;;;;1999.90;999.90;;;;;;;24.13;34.07;95430.47;5027509;28;20044;-67
2022/08/12 09:47:51;;;;;;;1999.90;999.90;;;;;;;24.07;35.71;95535.25;5007432;28;20032;-66
2022/08/12 09:50:17;;;;;;;1999.90;999.90;;;;;;;24.82;34.62;95566.22;5026489;28;20018;-66
2022/08/12 09:52:44;;;;;;;1999.90;999.90;;;;;;;24.61;34.13;95485.34;5028441;28;20079;-66
2022/08/12 09:55:10;;;;;;;1999.90;999.90;;;;;;;25.46;33.09;95521.22;5025794;28;20517;-67
2022/08/12 09:57:36;;;;;;;1999.90;999.90;;;;;;;25.50;32.65;95533.66;5025277;28;20025;-66
2022/08/12 10:00:03;;;;;;;1999.90;999.90;;;;;;;25.37;32.21;95502.53;5025180;28;20368;-66
2022/08/12 10:02:29;;;;;;;1999.90;999.90;;;;;;;25.78;32.45;95571.00;5026131;28;20037;-66
2022/08/12 10:04:56;;;;;;;1999.90;999.90;;;;;;;25.37;32.92;95568.66;5028754;28;20083;-66
2022/08/12 10:07:22;;;;;;;1999.90;999.90;;;;;;;25.96;32.40;95578.41;5011378;28;20018;-67
2022/08/12 10:09:49;;;;;;;1999.90;999.90;;;;;;;26.28;31.71;95567.41;5028323;28;20591;-67
2022/08/12 10:15:00;;;;;;;1999.90;999.90;;;;;;;26.08;32.12;95548.75;5018422;28;20036;-66
2022/08/12 10:17:26;;;;;;;1999.90;999.90;;;;;;;25.39;31.07;95451.19;5025044;28;20118;-67
2022/08/12 10:19:51;;;;;;;1999.90;999.90;;;;;;;25.76;29.90;95385.34;5025017;28;20069;-64
2022/08/12 10:22:17;;;;;;;1999.90;999.90;;;;;;;27.57;29.51;95562.75;5029663;28;20040;-65
2022/08/12 10:30:13;;;;;;;1999.90;999.90;;;;;;;27.45;27.10;95369.31;5030498;28;20041;-65
2022/08/12 10:32:38;;;;;;;1999.90;999.90;;;;;;;28.44;27.22;95492.34;5027896;28;20033;-66
2022/08/12 10:35:04;;;;;;;1999.90;999.90;;;;;;;28.48;27.79;95540.38;5028984;28;20061;-66
2022/08/12 10:37:30;;;;;;;1999.90;999.90;;;;;;;27.80;27.38;95493.88;5016577;28;20513;-66
2022/08/12 10:39:55;;;;;;;1999.90;999.90;;;;;;;26.40;28.00;95346.03;5030405;28;20033;-67
2022/08/12 10:45:08;;;;;;;1999.90;999.90;;;;;;;27.31;29.77;95557.91;5026977;28;20044;-65
2022/08/12 10:47:35;;;;;;;1999.90;999.90;;;;;;;27.12;28.96;95466.38;5029932;28;20028;-65
2022/08/12 10:50:04;;;;;;;1999.90;999.90;;;;;;;26.59;29.08;95453.88;5028253;28;20029;-65
2022/08/12 10:52:30;;;;;;;1999.90;999.90;;;;;;;26.37;30.84;95481.25;5023264;28;20028;-65
2022/08/12 10:54:56;;;;;;;1999.90;999.90;;;;;;;26.38;31.02;95547.47;5029132;28;20402;-65
2022/08/12 10:57:25;;;;;;;1999.90;999.90;;;;;;;25.67;31.84;95463.97;5022968;28;20037;-64
2022/08/12 10:59:56;;;;;;;1999.90;999.90;;;;;;;24.57;33.59;95453.91;5028504;28;20458;-64
2022/08/12 11:02:26;;;;;;;1999.90;999.90;;;;;;;25.42;32.84;95450.41;5029640;28;20064;-65
2022/08/12 11:04:56;;;;;;;1999.90;999.90;;;;;;;25.73;31.91;95470.56;5029570;28;20033;-64
2022/08/12 11:07:23;;;;;;;1999.90;999.90;;;;;;;24.25;31.42;95218.06;5028754;28;20018;-66
2022/08/12 11:09:48;;;;;;;1999.90;999.90;;;;;;;26.37;31.41;95535.03;5027066;28;20063;-64
2022/08/12 11:12:15;;;;;;;1999.90;999.90;;;;;;;26.06;31.27;95544.88;5028041;28;20493;-64
2022/08/12 11:14:41;;;;;;;1999.90;999.90;;;;;;;25.49;32.03;95536.75;5026429;28;20030;-64
2022/08/12 11:17:11;;;;;;;1999.90;999.90;;;;;;;25.84;30.05;95533.22;5030834;28;20032;-64
2022/08/12 11:19:38;;;;;;;1999.90;999.90;;;;;;;25.58;30.60;95534.41;5014787;28;20032;-65
2022/08/12 11:22:05;;;;;;;1999.90;999.90;;;;;;;24.59;31.29;95400.66;5030099;28;20037;-64
2022/08/12 11:24:31;;;;;;;1999.90;999.90;;;;;;;26.15;30.17;95528.84;5029504;28;20055;-65
2022/08/12 11:27:03;;;;;;;1999.90;999.90;;;;;;;25.79;30.92;95526.22;5028645;28;20463;-65
2022/08/12 11:29:30;;;;;;;1999.90;999.90;;;;;;;25.97;29.07;95514.53;5024667;28;20041;-65
2022/08/12 11:31:56;;;;;;;1999.90;999.90;;;;;;;24.29;29.67;95228.97;5031163;28;20033;-66
2022/08/12 11:34:22;;;;;;;1999.90;999.90;;;;;;;25.92;28.72;95395.78;5031500;28;20030;-66
2022/08/12 11:36:59;;;;;;;1999.90;999.90;;;;;;;27.26;27.51;95511.91;5031061;28;20033;-66
2022/08/12 11:39:26;;;;;;;1999.90;999.90;;;;;;;26.63;27.32;95422.66;5030978;28;20030;-65
2022/08/12 11:41:52;;;;;;;1999.90;999.90;;;;;;;27.13;27.31;95487.06;5011136;28;20414;-65
2022/08/12 11:44:17;;;;;;;1999.90;999.90;;;;;;;27.20;27.50;95470.59;5012950;28;20055;-65
2022/08/12 11:46:43;;;;;;;1999.90;999.90;;;;;;;26.39;27.08;95421.63;5030320;28;20115;-65
2022/08/12 11:49:10;;;;;;;1999.90;999.90;;;;;;;27.24;26.75;95509.59;5030409;28;20036;-65
2022/08/12 11:51:37;;;;;;;1999.90;999.90;;;;;;;27.43;26.94;95483.66;5027814;28;20147;-65
2022/08/12 11:54:03;;;;;;;1999.90;999.90;;;;;;;27.98;26.89;95537.41;5025688;28;20033;-65
2022/08/12 11:56:29;;;;;;;1999.90;999.90;;;;;;;26.34;26.73;95293.88;5027729;28;20568;-64
2022/08/12 11:58:55;;;;;;;1999.90;999.90;;;;;;;27.03;26.96;95475.00;5028537;28;20033;-65
2022/08/12 12:01:20;;;;;;;1999.90;999.90;;;;;;;26.34;27.00;95402.19;5028631;28;20164;-64
2022/08/12 12:03:46;;;;;;;1999.90;999.90;;;;;;;26.35;28.17;95485.53;5028496;28;20104;-65
2022/08/12 12:06:12;;;;;;;1999.90;999.90;;;;;;;26.42;26.99;95365.53;5011126;28;20103;-65
2022/08/12 12:08:37;;;;;;;1999.90;999.90;;;;;;;27.53;25.99;95506.59;5029423;28;20028;-65
2022/08/12 12:11:03;;;;;;;1999.90;999.90;;;;;;;27.28;26.06;95397.56;5029255;28;20033;-64
2022/08/12 12:13:28;;;;;;;1999.90;999.90;;;;;;;26.38;26.78;95323.84;5028126;28;20026;-65
2022/08/12 12:15:54;;;;;;;1999.90;999.90;;;;;;;27.01;27.21;95455.50;5028185;28;20033;-64
2022/08/12 12:18:21;;;;;;;1999.90;999.90;;;;;;;25.88;28.18;95496.63;5028362;28;20026;-65
2022/08/12 12:20:46;;;;;;;1999.90;999.90;;;;;;;25.31;28.71;95395.97;5011536;28;20143;-64
2022/08/12 12:23:12;;;;;;;1999.90;999.90;;;;;;;26.95;26.74;95408.00;5027684;28;20025;-65
2022/08/12 12:25:37;;;;;;;1999.90;999.90;;;;;;;25.23;27.26;95222.91;5029153;28;20108;-67
2022/08/12 12:28:03;;;;;;;1999.90;999.90;;;;;;;25.26;26.83;95233.03;5028960;28;20032;-65
2022/08/12 12:30:29;;;;;;;1999.90;999.90;;;;;;;24.98;27.28;95293.75;5028788;28;20033;-65
2022/08/12 12:32:55;;;;;;;1999.90;999.90;;;;;;;26.16;26.83;95443.19;5029034;28;20025;-64
2022/08/12 12:35:21;;;;;;;1999.90;999.90;;;;;;;26.49;26.71;95463.69;5023646;28;20075;-65
2022/08/12 12:37:54;;;;;;;1999.90;999.90;;;;;;;26.02;26.25;95337.72;5030433;28;20034;-64
2022/08/12 12:40:20;;;;;;;1999.90;999.90;;;;;;;26.77;26.76;95421.00;5028662;28;20045;-65
2022/08/12 12:42:46;;;;;;;1999.90;999.90;;;;;;;26.66;27.74;95456.53;5029386;28;20116;-65